Flight Track Log - Related Links

Times and Time Zones

All times are in EDT time to prevent confusion due to time zone crossing. See the N675MC flight status page for this flight to view local times or setup timezone preferences in your user account.

Time Position Orientation Groundspeed Altitude Reporting Facility
EDT Latitude Longitude Course Direction KTS MPH feet Rate Location/Type
Mon 08:29:11 AM 33.6500 -84.3667 349° North 204 235 2,400  Level Atlanta TRACON
Mon 08:30:11 AM 33.6833 -84.2833 64° Northeast 275 316 4,700 2,350 Climbing Atlanta TRACON
Mon 08:31:11 AM 33.7500 -84.2333 32° Northeast 273 314 7,100 2,190 Climbing Atlanta TRACON
Mon 08:32:17 AM 33.8167 -84.2500 348° North 291 335 9,300 1,650 Climbing Atlanta TRACON
Mon 08:33:00 AM 34.1577 -84.5706 348° North  Level Estimated
Mon 08:33:11 AM 33.8833 -84.3000 328° Northwest 305 351 10,400  Level Atlanta TRACON
Mon 08:34:00 AM 34.2619 -84.5993 349° North  Level Estimated
Mon 08:34:17 AM 33.9667 -84.3667 326° Northwest 346 398 11,800  Level Atlanta TRACON
Mon 08:34:57 AM 34.0211 -84.4072 328° Northwest 372 428 12,400 1,380 Climbing Atlanta Center
Mon 08:35:57 AM 34.1128 -84.4803 327° Northwest 393 452 14,100 2,150 Climbing Atlanta Center
Mon 08:36:57 AM 34.2044 -84.5511 327° Northwest 393 452 16,700 2,200 Climbing Atlanta Center
Mon 08:37:57 AM 34.3064 -84.5869 344° North 376 433 18,500 1,550 Climbing Atlanta Center
Mon 08:38:57 AM 34.4150 -84.6178 347° North 387 445 19,800 1,300 Climbing Atlanta Center
Mon 08:39:57 AM 34.5275 -84.6514 346° North 404 465 21,100 1,350 Climbing Atlanta Center
Mon 08:40:57 AM 34.6567 -84.6828 349° North 414 476 22,500 1,450 Climbing Atlanta Center
Mon 08:41:57 AM 34.7714 -84.7114 348° North 419 482 24,000 1,500 Climbing Atlanta Center
Mon 08:42:57 AM 34.8881 -84.7403 349° North 419 482 25,500 1,450 Climbing Atlanta Center
Mon 08:43:57 AM 35.0067 -84.7639 351° North 425 489 26,900 1,250 Climbing Atlanta Center
Mon 08:44:57 AM 35.1275 -84.7906 350° North 430 495 28,000 550 Climbing Atlanta Center
Mon 08:45:57 AM 35.2422 -84.8372 342° North 430 495 28,000  Level Atlanta Center
Mon 08:46:57 AM 35.3647 -84.8919 340° North 443 510 28,000  Level Atlanta Center
Mon 08:47:57 AM 35.4878 -84.9186 350° North 443 510 28,000  Level Atlanta Center
Mon 08:48:57 AM 35.6128 -84.9406 352° North 443 510 28,000  Level Atlanta Center
Mon 08:49:57 AM 35.7397 -84.9625 352° North 449 517 28,000  Level Atlanta Center
Mon 08:51:59 AM 35.9794 -84.9992 353° North 463 533 28,000  Level Indianapolis Center
Mon 08:53:00 AM 36.1256 -85.0444 346° North 450 518 28,000  Level Indianapolis Center
Mon 08:54:02 AM 36.2472 -85.0781 347° North 448 516 28,000  Level Indianapolis Center
Mon 08:55:04 AM 36.3675 -85.1169 345° North 446 513 28,000  Level Indianapolis Center
Mon 08:56:05 AM 36.4881 -85.1536 346° North 445 512 28,000  Level Indianapolis Center
Mon 08:57:07 AM 36.6094 -85.1875 347° North 446 513 28,000 -194 Level Indianapolis Center
Mon 08:58:09 AM 36.7317 -85.2153 350° North 447 514 27,600 -585 Descending Indianapolis Center
Mon 08:59:10 AM 36.8558 -85.2153 360° North 454 522 26,800 -1,366 Descending Indianapolis Center
Mon 09:00:12 AM 36.9747 -85.1564 22° Northeast 460 529 24,800 -2,661 Descending Indianapolis Center
Mon 09:01:14 AM 37.1025 -85.0628 30° Northeast 448 516 21,300 -2,806 Descending Indianapolis Center
Mon 09:02:16 AM 37.2106 -85.0169 19° North 409 471 19,000 -2,341 Descending Indianapolis Center
Mon 09:03:17 AM 37.3147 -84.9828 15° North 390 449 16,500 -2,732 Descending Indianapolis Center
Mon 09:04:19 AM 37.4206 -84.9642 North 383 441 13,400 -2,371 Descending Indianapolis Center
Mon 09:05:21 AM 37.5206 -84.9539 North 366 421 11,600 -1,210 Descending Indianapolis Center
Mon 09:06:23 AM 37.6128 -84.9469 North 340 391 10,900 -537 Descending Indianapolis Center
Mon 09:07:24 AM 37.6950 -85.0100 329° Northwest 313 360 10,500 -488 Descending Indianapolis Center
Mon 09:08:26 AM 37.7506 -85.0975 309° West 319 367 9,900 -242 Descending Indianapolis Center
Mon 09:09:28 AM 37.8028 -85.1708 312° West 289 333 10,000 -290 Climbing Indianapolis Center
Mon 09:10:30 AM 37.8600 -85.2347 319° Northwest 273 314 9,300 -1,220 Descending Indianapolis Center
Mon 09:11:31 AM 37.9228 -85.2825 329° Northwest 265 305 7,500 -1,512 Descending Indianapolis Center
Mon 09:12:33 AM 37.9817 -85.3333 326° Northwest 258 297 6,200 -726 Descending Indianapolis Center
Mon 09:13:35 AM 38.0417 -85.3853 326° Northwest 259 298 6,000 -97 Descending Indianapolis Center
Mon 09:14:37 AM 38.1022 -85.4353 327° Northwest 258 297 6,000  Level Indianapolis Center
Mon 09:15:39 AM 38.1625 -85.4858 327° Northwest 260 299 6,000  Level Indianapolis Center
Mon 09:16:41 AM 38.2350 -85.5456 327° Northwest 259 298 6,000 -195 Level Indianapolis Center
Mon 09:17:42 AM 38.2961 -85.5967 327° Northwest 261 300 5,600 -878 Descending Indianapolis Center
Mon 09:18:44 AM 38.3550 -85.6469 326° Northwest 258 297 4,200 -1,161 Descending Indianapolis Center
Mon 09:19:46 AM 38.3639 -85.7194 279° West 244 281 3,200 -532 Descending Indianapolis Center
Mon 09:20:48 AM 38.3297 -85.7792 234° Southwest 229 264 3,100 -387 Descending Indianapolis Center
Mon 09:21:50 AM 38.2750 -85.7614 166° South 214 246 2,400 -677 Descending Indianapolis Center

Login

Don't have an account? Register now (free) for customized features, flight alerts, and more!